createdAt,value
2018-04-26T00:00:03.661Z,98349.15
2018-04-26T00:02:32.722Z,98355.02
2018-04-26T00:05:01.703Z,98357.47
2018-04-26T00:07:30.768Z,98357.47
2018-04-26T00:09:59.819Z,98357.38
2018-04-26T00:12:28.640Z,98362.00
2018-04-26T01:48:59.689Z,98477.15
2018-04-26T01:51:28.761Z,98475.08
2018-04-26T01:53:57.770Z,98479.00
2018-04-26T01:56:26.328Z,98479.92
2018-04-26T01:58:55.541Z,98480.43
2018-04-26T02:01:24.347Z,98480.56
2018-04-26T02:03:53.315Z,98475.59
2018-04-26T02:06:22.429Z,98473.87
2018-04-26T02:08:51.442Z,98478.80
2018-04-26T02:11:20.373Z,98473.45
2018-04-26T02:13:49.106Z,98476.22
2018-04-26T02:16:18.200Z,98481.58
2018-04-26T02:18:47.084Z,98494.55
2018-04-26T02:21:16.308Z,98492.06
2018-04-26T02:23:45.236Z,98493.40
2018-04-26T02:26:14.177Z,98497.00
2018-04-26T02:28:43.396Z,98507.89
2018-04-26T02:31:12.124Z,98508.72
2018-04-26T02:33:40.446Z,98498.94
2018-04-26T02:36:09.070Z,98506.05
2018-04-26T02:38:37.395Z,98512.64
2018-04-26T02:41:06.235Z,98514.91
2018-04-26T02:43:35.053Z,98515.41
2018-04-26T02:46:03.713Z,98524.78
2018-04-26T02:48:32.564Z,98527.55
2018-04-26T02:51:02.251Z,98529.22
2018-04-26T02:55:55.307Z,98530.65
2018-04-26T02:58:24.315Z,98528.06
2018-04-26T03:00:53.261Z,98529.41
2018-04-26T03:03:21.987Z,98527.97
2018-04-26T03:05:51.104Z,98529.72
2018-04-26T03:08:20.141Z,98521.69
2018-04-26T03:10:48.810Z,98524.05
2018-04-26T03:13:17.765Z,98524.56
2018-04-26T03:15:46.891Z,98530.14
2018-04-26T03:18:15.699Z,98534.53
2018-04-26T03:20:44.882Z,98541.95
2018-04-26T03:25:53.065Z,98542.38
2018-04-26T03:56:24.384Z,98564.95
2018-04-26T03:58:53.138Z,98560.66
2018-04-26T04:01:34.771Z,98558.30
2018-04-26T04:04:15.138Z,98547.08
2018-04-26T04:06:44.027Z,98562.45
2018-04-26T04:09:12.806Z,98564.11
2018-04-26T04:11:41.780Z,98560.59
2018-04-26T04:14:10.704Z,98564.61
2018-04-26T04:16:39.526Z,98564.11
2018-04-26T04:19:08.278Z,98562.58
2018-04-26T04:21:37.465Z,98562.99
2018-04-26T04:24:07.008Z,98560.63
2018-04-26T04:26:36.212Z,98560.13
2018-04-26T04:29:04.717Z,98561.56
2018-04-26T04:31:33.787Z,98564.23
2018-04-26T04:34:02.440Z,98557.45
2018-04-26T04:36:31.251Z,98561.47
2018-04-26T04:38:59.980Z,98565.06
2018-04-26T04:41:28.641Z,98564.74
2018-04-26T04:43:57.241Z,98562.22
2018-04-26T04:46:26.014Z,98561.07
2018-04-26T04:48:54.971Z,98564.30
2018-04-26T04:51:24.074Z,98554.23
2018-04-26T04:53:52.720Z,98556.94
2018-04-26T04:56:21.584Z,98556.43
2018-04-26T04:58:50.254Z,98555.19
2018-04-26T05:01:18.735Z,98559.52
2018-04-26T05:03:47.575Z,98554.36
2018-04-26T05:06:16.594Z,98561.05
2018-04-26T05:08:45.677Z,98559.11
2018-04-26T05:11:14.676Z,98549.74
2018-04-26T05:13:43.666Z,98551.72
2018-04-26T05:16:12.726Z,98554.08
2018-04-26T05:18:41.731Z,98546.97
2018-04-26T05:21:10.478Z,98546.46
2018-04-26T05:23:39.308Z,98545.53
2018-04-26T05:26:08.286Z,98544.11
2018-04-26T05:28:37.225Z,98542.25
2018-04-26T05:31:06.098Z,98546.59
2018-04-26T05:33:34.846Z,98533.08
2018-04-26T05:36:03.276Z,98532.89
2018-04-26T05:38:32.143Z,98532.38
2018-04-26T05:41:00.775Z,98532.70
2018-04-26T05:43:31.462Z,98528.59
2018-04-26T05:46:00.144Z,98531.17
2018-04-26T05:48:28.287Z,98523.88
2018-04-26T05:50:56.885Z,98520.69
2018-04-26T05:53:25.421Z,98520.97
2018-04-26T05:55:54.590Z,98520.45
2018-04-26T05:58:23.454Z,98517.27
2018-04-26T06:00:52.307Z,98513.67
2018-04-26T06:03:20.950Z,98509.56
2018-04-26T06:05:49.424Z,98503.89
2018-04-26T06:08:18.474Z,98500.19
2018-04-26T06:10:47.617Z,98498.21
2018-04-26T06:13:16.195Z,98505.06
2018-04-26T06:15:44.943Z,98499.27
2018-04-26T06:18:13.870Z,98495.05
2018-04-26T06:20:43.055Z,98493.94
2018-04-26T06:23:11.811Z,98494.87
2018-04-26T06:25:40.751Z,98483.36
2018-04-26T06:28:09.281Z,98485.63
2018-04-26T06:30:38.117Z,98484.00
2018-04-26T06:33:06.790Z,98481.35
2018-04-26T06:35:35.378Z,98475.67
2018-04-26T06:38:04.230Z,98476.41
2018-04-26T06:40:32.992Z,98462.41
2018-04-26T06:43:02.086Z,98465.83
2018-04-26T06:45:31.036Z,98459.03
2018-04-26T06:48:00.104Z,98460.15
2018-04-26T06:50:28.912Z,98452.94
2018-04-26T06:52:57.849Z,98448.31
2018-04-26T06:55:26.655Z,98445.55
2018-04-26T06:57:55.650Z,98440.51
2018-04-26T07:00:24.609Z,98444.42
2018-04-26T07:02:53.135Z,98437.32
2018-04-26T07:05:21.756Z,98427.70
2018-04-26T07:07:51.142Z,98433.57
2018-04-26T07:10:20.163Z,98426.05
2018-04-26T07:12:49.130Z,98417.73
2018-04-26T07:15:17.860Z,98414.63
2018-04-26T07:17:47.799Z,98410.32
2018-04-26T07:20:16.964Z,98406.63
2018-04-26T07:22:45.709Z,98413.95
2018-04-26T07:25:14.639Z,98410.95
2018-04-26T07:27:43.180Z,98409.92
2018-04-26T07:30:12.024Z,98396.02
2018-04-26T07:32:41.073Z,98399.33
2018-04-26T07:35:09.983Z,98394.80
2018-04-26T07:37:38.852Z,98384.41
2018-04-26T07:40:07.508Z,98380.27
2018-04-26T07:42:36.231Z,98383.16
2018-04-26T07:45:05.319Z,98375.95
2018-04-26T07:47:34.397Z,98373.59
2018-04-26T07:50:03.133Z,98364.22
2018-04-26T07:52:32.070Z,98361.95
2018-04-26T07:55:01.063Z,98361.85
2018-04-26T07:57:29.736Z,98354.13
2018-04-26T07:59:58.718Z,98347.27
2018-04-26T08:02:27.665Z,98340.45
2018-04-26T08:04:56.319Z,98338.91
2018-04-26T08:07:25.543Z,98336.95
2018-04-26T08:09:54.205Z,98326.66
2018-04-26T08:12:23.412Z,98322.86
2018-04-26T08:14:54.517Z,98315.13
2018-04-26T08:17:23.735Z,98309.13
2018-04-26T08:19:53.836Z,98307.59
2018-04-26T08:22:23.264Z,98306.98
2018-04-26T08:24:53.269Z,98300.59
2018-04-26T08:27:23.012Z,98292.77
2018-04-26T08:29:52.745Z,98296.28
2018-04-26T08:32:21.972Z,98283.48
2018-04-26T08:34:51.008Z,98275.76
2018-04-26T08:37:19.994Z,98281.94
2018-04-26T08:39:48.902Z,98271.54
2018-04-26T08:42:17.855Z,98265.56
2018-04-26T08:44:47.797Z,98250.31
2018-04-26T08:47:16.903Z,98251.05
2018-04-26T08:49:45.570Z,98250.50
2018-04-26T08:52:14.387Z,98253.48
2018-04-26T08:54:43.495Z,98242.67
2018-04-26T08:57:12.480Z,98237.52
2018-04-26T08:59:41.265Z,98231.97
2018-04-26T09:02:10.189Z,98227.23
2018-04-26T09:04:41.309Z,98229.27
2018-04-26T09:07:10.938Z,98222.46
2018-04-26T09:09:40.399Z,98220.61
2018-04-26T09:12:09.835Z,98215.36
2018-04-26T09:14:40.460Z,98214.74
2018-04-26T09:17:10.489Z,98206.98
2018-04-26T09:19:39.940Z,98206.88
2018-04-26T09:22:10.210Z,98206.68
2018-04-26T09:24:39.351Z,98198.12
2018-04-26T09:27:08.423Z,98198.95
2018-04-26T09:29:37.753Z,98183.28
2018-04-26T09:32:06.928Z,98177.82
2018-04-26T09:34:37.434Z,98181.33
2018-04-26T09:37:11.280Z,98178.86
2018-04-26T09:39:45.352Z,98176.45
2018-04-26T09:42:19.854Z,98176.25
2018-04-26T09:44:50.022Z,98169.34
2018-04-26T09:47:19.474Z,98161.61
2018-04-26T09:49:49.447Z,98157.91
2018-04-26T09:52:19.004Z,98158.94
2018-04-26T09:54:49.146Z,98155.64
2018-04-26T09:57:18.465Z,98152.75
2018-04-26T09:59:48.504Z,98152.34
2018-04-26T10:02:18.161Z,98151.72
2018-04-26T10:05:02.072Z,98146.16
2018-04-26T10:07:32.146Z,98145.12
2018-04-26T10:10:01.542Z,98138.70
2018-04-26T10:12:31.224Z,98136.84
2018-04-26T10:15:01.437Z,98139.42
2018-04-26T10:17:31.662Z,98142.00
2018-04-26T10:20:00.831Z,98136.02
2018-04-26T10:22:30.021Z,98131.90
2018-04-26T10:25:00.469Z,98125.81
2018-04-26T10:27:30.237Z,98121.79
2018-04-26T10:30:00.388Z,98116.70
2018-04-26T10:32:29.699Z,98113.41
2018-04-26T10:34:59.408Z,98115.47
2018-04-26T10:37:28.456Z,98112.99
2018-04-26T10:39:57.356Z,98106.08
2018-04-26T10:42:27.056Z,98116.16
2018-04-26T10:44:55.962Z,98111.10
2018-04-26T10:47:25.789Z,98102.95
2018-04-26T10:49:55.347Z,98100.47
2018-04-26T10:52:25.133Z,98098.11
2018-04-26T10:54:53.893Z,98099.34
2018-04-26T10:57:23.376Z,98096.14
2018-04-26T10:59:52.636Z,98097.76
2018-04-26T11:02:22.168Z,98102.91
2018-04-26T11:04:52.355Z,98097.03
2018-04-26T11:07:21.989Z,98093.73
2018-04-26T11:09:51.747Z,98082.08
2018-04-26T11:12:20.718Z,98085.38
2018-04-26T11:14:54.868Z,98080.73
2018-04-26T11:17:24.618Z,98080.59
2018-04-26T11:19:53.937Z,98088.02
2018-04-26T11:22:24.602Z,98080.17
2018-04-26T11:24:54.063Z,98079.97
2018-04-26T11:27:22.544Z,98083.47
2018-04-26T11:29:51.990Z,98072.64
2018-04-26T11:32:21.103Z,98080.86
2018-04-26T11:34:50.461Z,98079.41
2018-04-26T11:37:19.471Z,98091.68
2018-04-26T11:39:49.222Z,98088.41
2018-04-26T11:42:18.044Z,98086.14
2018-04-26T11:44:47.968Z,98083.66
2018-04-26T11:47:17.262Z,98082.31
2018-04-26T11:49:46.224Z,98083.11
2018-04-26T11:52:15.552Z,98082.08
2018-04-26T11:54:44.451Z,98086.92
2018-04-26T11:57:12.897Z,98085.89
2018-04-26T11:59:42.362Z,98081.76
2018-04-26T12:02:11.808Z,98086.91
2018-04-26T12:04:41.344Z,98088.05
2018-04-26T12:07:11.828Z,98087.53
2018-04-26T12:09:40.816Z,98096.78
2018-04-26T12:12:09.918Z,98086.88
2018-04-26T12:14:38.855Z,98096.16
2018-04-26T12:17:08.136Z,98101.01
2018-04-26T12:19:37.554Z,98096.36
2018-04-26T12:22:07.455Z,98098.53
2018-04-26T12:24:36.845Z,98105.55
2018-04-26T12:27:06.119Z,98105.02
2018-04-26T12:29:36.049Z,98108.12
2018-04-26T12:32:04.799Z,98106.16
2018-04-26T12:34:33.415Z,98114.06
2018-04-26T12:37:02.773Z,98117.16
2018-04-26T12:39:31.727Z,98119.02
2018-04-26T12:42:00.562Z,98122.94
2018-04-26T12:44:29.616Z,98122.02
2018-04-26T12:46:59.474Z,98128.31
2018-04-26T12:49:29.795Z,98129.95
2018-04-26T12:52:00.048Z,98141.52
2018-04-26T12:54:29.817Z,98137.08
2018-04-26T12:56:59.112Z,98146.47
2018-04-26T12:59:28.711Z,98150.80
2018-04-26T13:01:58.069Z,98159.16
2018-04-26T13:04:27.588Z,98162.09
2018-04-26T13:06:57.618Z,98162.77
2018-04-26T13:09:27.652Z,98170.62
2018-04-26T13:11:57.027Z,98167.31
2018-04-26T13:14:26.519Z,98169.06
2018-04-26T13:16:56.173Z,98174.74
2018-04-26T13:19:25.357Z,98179.59
2018-04-26T13:21:54.529Z,98173.70
2018-04-26T13:24:24.116Z,98172.88
2018-04-26T13:26:52.841Z,98179.90
2018-04-26T13:29:22.089Z,98187.95
2018-04-26T13:31:52.239Z,98182.99
2018-04-26T13:34:21.598Z,98187.53
2018-04-26T13:36:51.055Z,98194.77
2018-04-26T13:39:20.155Z,98201.47
2018-04-26T13:41:49.570Z,98196.92
2018-04-26T13:44:19.402Z,98204.05
2018-04-26T13:46:48.515Z,98207.56
2018-04-26T13:49:18.104Z,98209.42
2018-04-26T13:51:47.054Z,98216.95
2018-04-26T13:54:16.185Z,98219.09
2018-04-26T13:56:45.230Z,98224.86
2018-04-26T13:59:14.132Z,98230.54
2018-04-26T14:01:43.231Z,98241.27
2018-04-26T14:04:13.468Z,98242.52
2018-04-26T14:06:43.228Z,98243.85
2018-04-26T14:09:12.292Z,98246.53
2018-04-26T14:11:41.089Z,98254.07
2018-04-26T14:14:10.120Z,98259.44
2018-04-26T14:16:39.378Z,98261.70
2018-04-26T14:19:08.328Z,98258.92
2018-04-26T14:21:37.313Z,98262.13
2018-04-26T14:24:06.601Z,98266.97
2018-04-26T14:26:35.346Z,98271.00
2018-04-26T14:29:04.213Z,98275.54
2018-04-26T14:31:33.742Z,98277.30
2018-04-26T14:34:03.288Z,98281.73
2018-04-26T14:36:32.778Z,98286.58
2018-04-26T14:39:02.216Z,98286.06
2018-04-26T14:41:31.473Z,98292.27
2018-04-26T14:44:00.707Z,98295.25
2018-04-26T14:46:30.029Z,98295.56
2018-04-26T14:48:59.521Z,98299.59
2018-04-26T14:51:28.725Z,98304.03
2018-04-26T14:53:58.517Z,98304.82
2018-04-26T14:56:27.329Z,98312.77
2018-04-26T14:58:56.639Z,98313.19
2018-04-26T15:01:25.564Z,98318.55
2018-04-26T15:03:54.727Z,98317.11
2018-04-26T15:06:23.796Z,98322.98
2018-04-26T15:08:53.164Z,98322.16
2018-04-26T15:11:23.206Z,98337.34
2018-04-26T15:13:53.330Z,98335.58
2018-04-26T15:16:22.445Z,98338.16
2018-04-26T15:18:52.467Z,98337.64
2018-04-26T15:21:22.168Z,98342.09
2018-04-26T15:23:50.845Z,98346.42
2018-04-26T15:26:20.100Z,98355.30
2018-04-26T15:28:49.780Z,98350.76
2018-04-26T15:31:19.527Z,98359.33
2018-04-26T15:33:48.958Z,98356.13
2018-04-26T15:36:18.561Z,98364.18
2018-04-26T15:38:48.187Z,98369.13
2018-04-26T15:41:17.304Z,98371.81
2018-04-26T15:43:46.866Z,98373.98
2018-04-26T15:46:16.477Z,98375.33
2018-04-26T15:48:45.999Z,98380.28
2018-04-26T15:51:15.616Z,98382.34
2018-04-26T15:56:59.737Z,98383.28
2018-04-26T15:59:40.750Z,98387.30
2018-04-26T16:02:25.293Z,98383.59
2018-04-26T16:08:22.414Z,98378.63
2018-04-26T16:11:08.944Z,98385.34
2018-04-26T16:13:55.457Z,98389.78
2018-04-26T16:16:41.544Z,98390.20
2018-04-26T16:19:33.129Z,98389.78
2018-04-26T16:22:21.926Z,98393.29
2018-04-26T16:25:03.049Z,98396.91
2018-04-26T16:27:45.323Z,98395.56
2018-04-26T16:30:26.386Z,98399.07
2018-04-26T16:33:06.876Z,98405.37
2018-04-26T16:35:48.174Z,98413.84
2018-04-26T16:38:29.104Z,98412.49
2018-04-26T16:40:58.266Z,98419.62
2018-04-26T16:43:28.348Z,98415.17
2018-04-26T16:45:58.177Z,98420.64
2018-04-26T16:48:27.881Z,98421.16
2018-04-26T16:50:57.116Z,98417.23
2018-04-26T16:53:26.936Z,98418.48
2018-04-26T16:55:56.240Z,98416.31
2018-04-26T16:58:25.389Z,98417.14
2018-04-26T17:00:54.529Z,98418.89
2018-04-26T17:03:24.027Z,98419.12
2018-04-26T17:05:52.963Z,98420.59
2018-04-26T17:08:21.608Z,98422.52
2018-04-26T17:10:50.971Z,98425.63
2018-04-26T17:13:20.309Z,98433.98
2018-04-26T17:15:50.130Z,98436.98
2018-04-26T17:18:19.431Z,98430.03
2018-04-26T17:20:49.055Z,98433.03
2018-04-26T17:23:18.845Z,98430.66
2018-04-26T17:25:48.124Z,98433.45
2018-04-26T17:28:17.533Z,98442.84
2018-04-26T17:30:47.113Z,98449.55
2018-04-26T17:33:16.091Z,98456.88
2018-04-26T17:35:45.445Z,98469.88
2018-04-26T17:38:15.200Z,98464.92
2018-04-26T17:40:44.239Z,98459.80
2018-04-26T17:43:13.951Z,98454.11
2018-04-26T17:45:43.110Z,98450.60
2018-04-26T17:48:12.476Z,98442.03
2018-04-26T17:50:42.527Z,98438.94
2018-04-26T17:53:12.172Z,98435.73
2018-04-26T17:55:41.413Z,98442.45
2018-04-26T17:58:10.443Z,98447.81
2018-04-26T18:00:39.889Z,98449.67
2018-04-26T18:03:09.415Z,98449.57
2018-04-26T18:05:38.332Z,98440.18
2018-04-26T18:08:07.565Z,98453.59
2018-04-26T18:10:36.541Z,98464.75
2018-04-26T18:13:06.399Z,98465.98
2018-04-26T18:15:36.002Z,98465.06
2018-04-26T18:18:05.844Z,98465.58
2018-04-26T18:20:35.549Z,98468.26
2018-04-26T18:23:05.312Z,98469.70
2018-04-26T18:25:35.285Z,98472.59
2018-04-26T18:28:04.863Z,98472.08
2018-04-26T18:30:33.596Z,98465.16
2018-04-26T18:33:03.205Z,98465.98
2018-04-26T18:35:32.493Z,98456.70
2018-04-26T18:38:02.025Z,98457.21
2018-04-26T18:40:30.848Z,98459.00
2018-04-26T18:42:59.815Z,98457.75
2018-04-26T18:45:28.906Z,98459.17
2018-04-26T18:47:58.093Z,98454.84
2018-04-26T18:50:27.501Z,98454.22
2018-04-26T18:52:56.733Z,98460.42
2018-04-26T18:55:26.090Z,98459.39
2018-04-26T18:57:55.268Z,98456.09
2018-04-26T19:00:25.282Z,98457.33
2018-04-26T19:02:54.874Z,98455.88
2018-04-26T19:05:24.654Z,98450.52
2018-04-26T19:07:53.964Z,98453.61
2018-04-26T19:10:23.834Z,98456.71
2018-04-26T19:12:53.459Z,98453.20
2018-04-26T19:15:22.883Z,98450.52
2018-04-26T19:17:52.496Z,98449.17
2018-04-26T19:20:22.365Z,98456.81
2018-04-26T19:22:52.683Z,98459.50
2018-04-26T19:25:21.658Z,98454.95
2018-04-26T19:27:51.174Z,98460.33
2018-04-26T19:30:20.844Z,98462.19
2018-04-26T19:32:49.691Z,98447.83
2018-04-26T19:35:18.700Z,98443.81
2018-04-26T19:37:48.225Z,98441.64
2018-04-26T19:40:18.025Z,98444.22
2018-04-26T19:42:46.752Z,98442.47
2018-04-26T19:45:15.641Z,98447.01
2018-04-26T19:47:45.273Z,98452.27
2018-04-26T19:50:15.105Z,98452.14
2018-04-26T19:52:44.292Z,98453.09
2018-04-26T19:55:13.331Z,98453.38
2018-04-26T19:57:42.087Z,98453.48
2018-04-26T20:00:11.201Z,98453.90
2018-04-26T20:02:39.909Z,98453.90
2018-04-26T20:05:09.283Z,98453.20
2018-04-26T20:07:38.152Z,98460.84
2018-04-26T20:10:07.374Z,98454.64
2018-04-26T20:12:36.366Z,98458.16
2018-04-26T20:15:05.425Z,98468.99
2018-04-26T20:17:34.634Z,98483.65
2018-04-26T20:20:04.213Z,98485.41
2018-04-26T20:22:33.605Z,98480.45
2018-04-26T20:25:02.953Z,98471.98
2018-04-26T20:27:31.702Z,98472.91
2018-04-26T20:30:01.074Z,98466.83
2018-04-26T20:32:31.027Z,98471.77
2018-04-26T20:34:59.805Z,98469.92
2018-04-26T20:37:29.529Z,98473.84
2018-04-26T20:39:59.161Z,98476.02
2018-04-26T20:42:28.369Z,98473.43
2018-04-26T20:44:58.237Z,98484.99
2018-04-26T20:47:27.766Z,98487.77
2018-04-26T20:49:57.495Z,98483.85
2018-04-26T20:52:26.268Z,98476.31
2018-04-26T20:54:55.856Z,98487.66
2018-04-26T20:57:25.120Z,98475.17
2018-04-26T20:59:54.304Z,98481.98
2018-04-26T21:02:26.340Z,98472.00
2018-04-26T21:04:56.469Z,98476.95
2018-04-26T21:07:27.056Z,98479.64
2018-04-26T21:09:57.781Z,98482.94
2018-04-26T21:12:27.504Z,98479.84
2018-04-26T21:14:57.281Z,98481.28
2018-04-26T21:17:26.587Z,98484.80
2018-04-26T21:19:56.844Z,98488.50
2018-04-26T21:22:27.014Z,98481.80
2018-04-26T21:24:56.717Z,98480.35
2018-04-26T21:27:26.407Z,98478.70
2018-04-26T21:29:56.122Z,98478.28
2018-04-26T21:32:26.003Z,98474.36
2018-04-26T21:34:55.726Z,98476.22
2018-04-26T21:37:25.241Z,98476.31
2018-04-26T21:39:54.703Z,98475.08
2018-04-26T21:42:24.690Z,98479.61
2018-04-26T21:44:54.622Z,98481.60
2018-04-26T21:47:24.277Z,98483.97
2018-04-26T21:50:00.294Z,98484.38
2018-04-26T21:52:35.153Z,98485.41
2018-04-26T21:55:09.438Z,98489.95
2018-04-26T21:57:43.829Z,98488.61
2018-04-26T22:00:18.189Z,98509.66
2018-04-26T22:02:47.383Z,98512.66
2018-04-26T22:05:22.237Z,98519.78
2018-04-26T22:07:51.394Z,98509.97
2018-04-26T22:10:21.756Z,98503.78
2018-04-26T22:12:51.627Z,98493.56
2018-04-26T22:15:21.243Z,98492.73
2018-04-26T22:17:50.340Z,98491.08
2018-04-26T22:20:19.737Z,98495.20
2018-04-26T22:22:49.111Z,98496.55
2018-04-26T22:25:19.325Z,98498.81
2018-04-26T22:27:48.908Z,98499.74
2018-04-26T22:30:18.113Z,98500.39
2018-04-26T22:32:47.332Z,98503.59
2018-04-26T22:35:16.741Z,98506.78
2018-04-26T22:37:46.569Z,98512.66
2018-04-26T22:40:16.192Z,98502.52
2018-04-26T22:42:46.258Z,98502.61
2018-04-26T22:45:15.887Z,98499.72
2018-04-26T22:47:45.123Z,98500.23
2018-04-26T22:50:14.674Z,98500.74
2018-04-26T22:52:44.738Z,98491.48
2018-04-26T22:55:14.156Z,98491.77
2018-04-26T22:57:43.646Z,98500.36
2018-04-26T23:00:13.213Z,98514.28
2018-04-26T23:02:43.008Z,98510.55
2018-04-26T23:05:12.743Z,98506.52
2018-04-26T23:07:41.989Z,98499.22
2018-04-26T23:10:11.730Z,98501.59
2018-04-26T23:12:41.498Z,98511.59
2018-04-26T23:15:10.705Z,98512.62
2018-04-26T23:17:39.623Z,98523.95
2018-04-26T23:20:08.682Z,98529.32
2018-04-26T23:22:38.209Z,98530.89
2018-04-26T23:25:08.055Z,98538.02
2018-04-26T23:27:38.188Z,98537.28
2018-04-26T23:30:07.643Z,98545.84
2018-04-26T23:32:36.913Z,98545.53
2018-04-26T23:35:06.498Z,98558.42
2018-04-26T23:37:35.628Z,98554.30
2018-04-26T23:40:11.808Z,98558.33
2018-04-26T23:42:41.212Z,98565.23
2018-04-26T23:45:10.203Z,98562.03
2018-04-26T23:47:39.050Z,98567.40
2018-04-26T23:50:08.535Z,98561.72
2018-04-26T23:52:37.838Z,98574.72
2018-04-26T23:55:06.771Z,98573.47
2018-04-26T23:57:36.088Z,98585.95
